createdAt,value
2023-05-24T00:00:02.937Z,5.43
2023-05-24T00:02:35.428Z,5.13
2023-05-24T00:05:05.429Z,5.40
2023-05-24T00:07:33.956Z,5.60
2023-05-24T00:10:02.353Z,5.38
2023-05-24T00:12:30.835Z,4.90
2023-05-24T00:14:59.545Z,6.00
2023-05-24T00:17:30.168Z,5.90
2023-05-24T00:19:59.808Z,5.60
2023-05-24T00:22:29.657Z,5.40
2023-05-24T00:24:57.979Z,5.37
2023-05-24T00:27:26.381Z,5.38
2023-05-24T00:29:54.673Z,4.95
2023-05-24T00:32:23.157Z,5.53
2023-05-24T00:34:51.679Z,5.20
2023-05-24T00:37:19.977Z,5.18
2023-05-24T00:39:49.679Z,5.55
2023-05-24T00:42:18.396Z,5.55
2023-05-24T00:44:46.626Z,5.40
2023-05-24T00:47:15.136Z,5.38
2023-05-24T00:49:47.872Z,5.35
2023-05-24T00:52:17.591Z,5.80
2023-05-24T00:54:46.335Z,5.50
2023-05-24T00:57:16.327Z,6.03
2023-05-24T00:59:44.670Z,5.57
2023-05-24T01:02:13.090Z,5.60
2023-05-24T01:04:42.025Z,5.50
2023-05-24T01:07:19.658Z,5.25
2023-05-24T01:09:59.484Z,5.30
2023-05-24T01:12:37.816Z,5.70
2023-05-24T01:15:16.696Z,5.30
2023-05-24T01:17:55.733Z,5.78
2023-05-24T01:20:25.613Z,5.38
2023-05-24T01:23:07.269Z,5.82
2023-05-24T01:26:26.810Z,6.15
2023-05-24T01:28:57.094Z,6.18
2023-05-24T01:31:26.440Z,6.18
2023-05-24T01:33:54.847Z,5.60
2023-05-24T01:36:23.151Z,5.68
2023-05-24T01:38:54.271Z,5.95
2023-05-24T01:41:34.093Z,5.53
2023-05-24T01:44:11.275Z,6.20
2023-05-24T01:46:40.493Z,6.20
2023-05-24T01:49:19.405Z,6.45
2023-05-24T01:51:52.436Z,6.60
2023-05-24T01:54:24.407Z,6.97
2023-05-24T01:56:55.305Z,6.55
2023-05-24T01:59:27.119Z,6.55
2023-05-24T02:01:56.504Z,6.53
2023-05-24T02:04:25.709Z,6.40
2023-05-24T02:06:54.038Z,6.50
2023-05-24T02:09:22.329Z,6.10
2023-05-24T02:11:51.422Z,6.35
2023-05-24T02:14:20.018Z,6.20
2023-05-24T02:16:50.670Z,6.43
2023-05-24T02:19:20.412Z,6.25
2023-05-24T02:21:48.663Z,6.43
2023-05-24T02:24:18.686Z,6.10
2023-05-24T02:26:47.239Z,6.45
2023-05-24T02:29:15.564Z,5.93
2023-05-24T02:31:44.008Z,6.30
2023-05-24T02:34:13.612Z,7.00
2023-05-24T02:36:42.621Z,6.77
2023-05-24T02:39:11.062Z,6.63
2023-05-24T02:41:39.612Z,6.50
2023-05-24T02:44:08.373Z,6.40
2023-05-24T02:46:36.688Z,6.47
2023-05-24T02:49:05.905Z,6.85
2023-05-24T02:51:37.050Z,6.47
2023-05-24T02:54:05.682Z,6.70
2023-05-24T02:56:34.753Z,6.82
2023-05-24T02:59:03.964Z,6.75
2023-05-24T03:01:34.060Z,7.38
2023-05-24T03:04:05.010Z,7.18
2023-05-24T03:06:33.710Z,7.00
2023-05-24T03:09:03.419Z,6.93
2023-05-24T03:11:31.820Z,6.83
2023-05-24T03:14:00.184Z,7.05
2023-05-24T03:16:28.622Z,6.97
2023-05-24T03:18:56.889Z,6.72
2023-05-24T03:21:25.388Z,7.45
2023-05-24T03:23:53.873Z,7.00
2023-05-24T03:26:23.535Z,6.72
2023-05-24T03:28:54.356Z,7.03
2023-05-24T03:31:28.239Z,7.30
2023-05-24T03:33:57.082Z,8.43
2023-05-24T03:36:27.955Z,8.13
2023-05-24T03:38:58.433Z,8.55
2023-05-24T03:41:28.851Z,8.38
2023-05-24T03:44:01.145Z,8.55
2023-05-24T03:46:33.413Z,8.13
2023-05-24T03:49:02.584Z,8.32
2023-05-24T03:51:31.170Z,8.80
2023-05-24T03:53:59.798Z,8.23
2023-05-24T03:56:29.563Z,13.38
2023-05-24T03:59:00.650Z,28.98
2023-05-24T04:01:34.014Z,25.80
2023-05-24T04:04:03.672Z,9.60
2023-05-24T04:06:32.389Z,8.40
2023-05-24T04:09:01.936Z,8.43
2023-05-24T04:11:32.941Z,7.90
2023-05-24T04:14:01.419Z,8.30
2023-05-24T04:16:34.532Z,8.30
2023-05-24T04:19:07.846Z,8.15
2023-05-24T04:21:36.909Z,8.38
2023-05-24T04:24:05.808Z,7.95
2023-05-24T04:26:37.908Z,7.75
2023-05-24T04:29:07.840Z,8.00
2023-05-24T04:31:37.340Z,7.85
2023-05-24T04:34:07.821Z,8.18
2023-05-24T04:36:36.500Z,8.07
2023-05-24T04:39:05.267Z,7.75
2023-05-24T04:41:35.874Z,6.90
2023-05-24T04:46:35.958Z,19.95
2023-05-24T04:49:05.868Z,12.23
2023-05-24T04:51:34.565Z,8.05
2023-05-24T04:54:09.107Z,7.95
2023-05-24T04:56:39.744Z,7.55
2023-05-24T04:59:09.918Z,7.88
2023-05-24T05:01:38.291Z,7.50
2023-05-24T05:04:07.426Z,7.90
2023-05-24T05:06:39.046Z,7.63
2023-05-24T05:09:09.462Z,8.00
2023-05-24T05:11:39.353Z,7.38
2023-05-24T05:14:09.425Z,7.47
2023-05-24T05:16:38.391Z,7.70
2023-05-24T05:19:06.779Z,7.68
2023-05-24T05:21:36.426Z,7.75
2023-05-24T05:24:05.246Z,7.88
2023-05-24T05:26:33.558Z,7.97
2023-05-24T05:29:03.785Z,8.30
2023-05-24T05:31:32.423Z,11.90
2023-05-24T05:34:01.110Z,21.48
2023-05-24T05:36:29.416Z,15.43
2023-05-24T05:38:57.784Z,11.45
2023-05-24T05:41:26.120Z,11.27
2023-05-24T05:43:54.553Z,10.88
2023-05-24T05:46:24.561Z,9.75
2023-05-24T05:48:52.945Z,9.77
2023-05-24T05:51:21.716Z,10.02
2023-05-24T05:53:50.019Z,10.30
2023-05-24T05:56:18.884Z,10.63
2023-05-24T05:58:47.169Z,14.25
2023-05-24T06:01:18.015Z,12.40
2023-05-24T06:03:47.952Z,11.43
2023-05-24T06:06:16.728Z,10.25
2023-05-24T06:08:45.009Z,9.68
2023-05-24T06:11:13.812Z,10.30
2023-05-24T06:13:42.274Z,11.10
2023-05-24T06:16:10.675Z,10.35
2023-05-24T06:18:41.676Z,10.48
2023-05-24T06:21:12.911Z,10.35
2023-05-24T06:23:41.409Z,10.13
2023-05-24T06:26:10.506Z,14.30
2023-05-24T06:28:39.278Z,13.00
2023-05-24T06:31:07.590Z,10.70
2023-05-24T06:33:37.914Z,10.13
2023-05-24T06:36:06.864Z,10.38
2023-05-24T06:38:36.923Z,10.27
2023-05-24T06:41:05.544Z,10.30
2023-05-24T06:43:34.984Z,10.10
2023-05-24T06:46:03.781Z,10.55
2023-05-24T06:48:32.418Z,11.10
2023-05-24T06:51:01.130Z,10.77
2023-05-24T06:53:29.639Z,10.90
2023-05-24T06:56:00.051Z,10.40
2023-05-24T06:58:28.375Z,10.95
2023-05-24T07:00:56.726Z,11.10
2023-05-24T07:03:25.327Z,9.90
2023-05-24T07:05:53.946Z,11.00
2023-05-24T07:08:23.637Z,10.75
2023-05-24T07:10:52.089Z,11.02
2023-05-24T07:13:22.915Z,10.77
2023-05-24T07:18:20.441Z,11.55
2023-05-24T07:20:48.914Z,13.18
2023-05-24T07:23:17.349Z,14.23
2023-05-24T07:25:46.071Z,14.80
2023-05-24T07:28:15.493Z,14.63
2023-05-24T07:30:45.369Z,14.70
2023-05-24T07:33:13.787Z,14.60
2023-05-24T07:35:42.505Z,15.27
2023-05-24T07:38:12.212Z,16.92
2023-05-24T07:40:40.698Z,16.50
2023-05-24T07:43:09.613Z,27.00
2023-05-24T07:45:37.975Z,19.33
2023-05-24T07:48:08.155Z,16.05
2023-05-24T07:50:36.560Z,17.52
2023-05-24T07:53:05.643Z,16.42
2023-05-24T07:55:34.129Z,15.45
2023-05-24T07:58:02.832Z,19.95
2023-05-24T08:00:31.208Z,16.20
2023-05-24T08:02:59.952Z,15.35
2023-05-24T08:05:30.069Z,14.27
2023-05-24T08:07:58.943Z,12.60
2023-05-24T08:10:27.777Z,12.77
2023-05-24T08:12:56.188Z,12.15
2023-05-24T08:15:24.860Z,11.27
2023-05-24T08:17:53.147Z,10.25
2023-05-24T08:20:22.355Z,11.55
2023-05-24T08:22:52.220Z,11.80
2023-05-24T08:25:21.307Z,11.73
2023-05-24T08:27:49.946Z,11.60
2023-05-24T08:30:18.439Z,12.50
2023-05-24T08:32:48.033Z,12.75
2023-05-24T08:35:20.838Z,13.13
2023-05-24T08:37:52.366Z,12.43
2023-05-24T08:40:21.032Z,11.88
2023-05-24T08:42:51.116Z,12.02
2023-05-24T08:45:20.546Z,11.90
2023-05-24T08:47:51.903Z,11.38
2023-05-24T08:50:21.284Z,10.90
2023-05-24T08:52:52.609Z,11.80
2023-05-24T08:55:21.927Z,10.52
2023-05-24T08:57:51.570Z,11.30
2023-05-24T09:00:20.907Z,10.60
2023-05-24T09:02:51.037Z,10.52
2023-05-24T09:05:22.253Z,10.70
2023-05-24T09:07:53.162Z,10.40
2023-05-24T09:10:24.200Z,10.45
2023-05-24T09:12:57.474Z,12.45
2023-05-24T09:15:26.232Z,12.38
2023-05-24T09:17:55.307Z,12.20
2023-05-24T09:20:24.259Z,10.35
2023-05-24T09:22:54.241Z,9.15
2023-05-24T09:25:22.836Z,10.35
2023-05-24T09:27:52.778Z,9.75
2023-05-24T09:30:22.084Z,9.80
2023-05-24T09:32:58.573Z,10.32
2023-05-24T09:35:28.178Z,13.43
2023-05-24T09:37:59.788Z,12.88
2023-05-24T09:40:29.851Z,11.05
2023-05-24T09:43:05.817Z,11.15
2023-05-24T09:45:34.355Z,10.38
2023-05-24T09:48:05.700Z,9.83
2023-05-24T09:50:33.973Z,10.32
2023-05-24T09:53:04.168Z,9.15
2023-05-24T09:55:38.247Z,10.50
2023-05-24T09:58:08.923Z,10.73
2023-05-24T10:03:12.326Z,10.02
2023-05-24T10:05:45.054Z,9.98
2023-05-24T10:08:15.450Z,10.02
2023-05-24T10:10:45.072Z,9.73
2023-05-24T10:13:15.882Z,10.27
2023-05-24T10:15:46.007Z,9.82
2023-05-24T10:18:14.751Z,9.83
2023-05-24T10:20:44.085Z,9.07
2023-05-24T10:23:20.851Z,9.13
2023-05-24T10:25:54.177Z,9.20
2023-05-24T10:28:24.655Z,10.00
2023-05-24T10:31:03.160Z,9.35
2023-05-24T10:33:33.533Z,9.38
2023-05-24T10:38:41.344Z,10.30
2023-05-24T10:41:10.446Z,9.77
2023-05-24T10:43:39.500Z,9.90
2023-05-24T10:46:10.618Z,9.90
2023-05-24T10:48:41.172Z,9.20
2023-05-24T10:51:35.524Z,9.38
2023-05-24T10:54:16.901Z,9.00
2023-05-24T10:56:47.867Z,8.48
2023-05-24T10:59:33.524Z,8.63
2023-05-24T11:02:03.204Z,8.50
2023-05-24T11:04:38.023Z,8.50
2023-05-24T11:07:09.859Z,8.57
2023-05-24T11:09:45.998Z,8.73
2023-05-24T11:12:17.599Z,8.35
2023-05-24T11:14:50.296Z,8.73
2023-05-24T11:17:20.550Z,8.90
2023-05-24T11:19:51.697Z,9.52
2023-05-24T11:22:23.138Z,9.65
2023-05-24T11:24:53.696Z,9.20
2023-05-24T11:27:22.583Z,8.90
2023-05-24T11:29:51.047Z,8.77
2023-05-24T11:32:24.255Z,8.90
2023-05-24T11:34:52.876Z,10.07
2023-05-24T11:37:31.585Z,10.07
2023-05-24T11:40:10.820Z,8.70
2023-05-24T11:42:39.469Z,9.23
2023-05-24T11:45:10.839Z,8.80
2023-05-24T11:47:39.727Z,9.23
2023-05-24T11:50:08.758Z,8.57
2023-05-24T11:52:41.076Z,8.40
2023-05-24T11:55:16.426Z,9.43
2023-05-24T11:57:55.443Z,8.98
2023-05-24T12:00:26.100Z,10.15
2023-05-24T12:05:26.204Z,9.05
2023-05-24T12:08:06.521Z,9.13
2023-05-24T12:10:38.426Z,8.68
2023-05-24T12:13:08.541Z,8.27
2023-05-24T12:15:37.818Z,8.30
2023-05-24T12:18:06.296Z,8.60
2023-05-24T12:20:35.124Z,8.70
2023-05-24T12:23:03.455Z,8.13
2023-05-24T12:25:33.258Z,8.15
2023-05-24T12:28:05.848Z,7.57
2023-05-24T12:30:34.412Z,7.50
2023-05-24T12:33:02.798Z,8.30
2023-05-24T12:35:31.745Z,7.63
2023-05-24T12:38:01.122Z,7.32
2023-05-24T12:40:33.665Z,7.85
2023-05-24T12:43:05.345Z,7.50
2023-05-24T12:45:33.682Z,8.20
2023-05-24T12:48:03.160Z,7.38
2023-05-24T12:50:31.867Z,7.90
2023-05-24T12:53:01.061Z,7.25
2023-05-24T12:55:30.546Z,7.82
2023-05-24T12:58:02.719Z,7.53
2023-05-24T13:00:32.514Z,8.32
2023-05-24T13:03:01.422Z,7.60
2023-05-24T13:05:30.891Z,7.68
2023-05-24T13:08:00.699Z,8.10
2023-05-24T13:10:29.082Z,7.90
2023-05-24T13:12:57.505Z,7.80
2023-05-24T13:15:28.950Z,7.63
2023-05-24T13:17:58.892Z,7.68
2023-05-24T13:20:29.880Z,7.68
2023-05-24T13:22:58.155Z,7.88
2023-05-24T13:25:28.871Z,7.43
2023-05-24T13:27:57.448Z,7.60
2023-05-24T13:30:28.636Z,8.70
2023-05-24T13:32:59.642Z,9.10
2023-05-24T13:35:31.325Z,8.98
2023-05-24T13:38:02.679Z,15.35
2023-05-24T13:40:32.645Z,12.00
2023-05-24T13:45:33.784Z,7.80
2023-05-24T13:48:04.062Z,8.30
2023-05-24T13:50:34.480Z,7.90
2023-05-24T13:53:03.618Z,8.30
2023-05-24T13:55:35.336Z,8.25
2023-05-24T13:58:04.941Z,8.43
2023-05-24T14:00:36.383Z,7.90
2023-05-24T14:03:06.400Z,7.97
2023-05-24T14:05:35.129Z,8.80
2023-05-24T14:08:07.208Z,8.00
2023-05-24T14:10:36.859Z,9.18
2023-05-24T14:13:28.850Z,8.77
2023-05-24T14:15:54.654Z,9.07
2023-05-24T14:18:25.689Z,9.75
2023-05-24T14:20:55.407Z,9.88
2023-05-24T14:23:23.863Z,9.80
2023-05-24T14:25:52.865Z,10.77
2023-05-24T14:28:21.916Z,7.78
2023-05-24T14:30:50.500Z,8.23
2023-05-24T14:33:19.023Z,9.02
2023-05-24T14:35:49.003Z,9.15
2023-05-24T14:38:18.156Z,9.13
2023-05-24T14:40:47.600Z,8.80
2023-05-24T14:43:16.474Z,9.75
2023-05-24T14:45:45.598Z,9.40
2023-05-24T14:48:15.414Z,9.05
2023-05-24T14:50:44.387Z,9.82
2023-05-24T14:53:14.303Z,10.07
2023-05-24T14:55:45.883Z,10.23
2023-05-24T14:58:14.620Z,9.73
2023-05-24T15:00:46.354Z,9.00
2023-05-24T15:03:15.090Z,10.05
2023-05-24T15:05:44.194Z,11.13
2023-05-24T15:08:14.714Z,10.82
2023-05-24T15:10:45.394Z,9.07
2023-05-24T15:13:14.409Z,10.55
2023-05-24T15:15:43.277Z,10.27
2023-05-24T15:18:12.049Z,9.85
2023-05-24T15:20:41.173Z,10.48
2023-05-24T15:23:10.883Z,14.60
2023-05-24T15:25:41.006Z,11.15
2023-05-24T15:28:10.845Z,9.90
2023-05-24T15:30:39.186Z,9.88
2023-05-24T15:33:08.217Z,8.73
2023-05-24T15:35:37.221Z,9.95
2023-05-24T15:38:05.495Z,14.23
2023-05-24T15:40:34.548Z,10.02
2023-05-24T15:43:04.171Z,9.45
2023-05-24T15:45:33.102Z,8.95
2023-05-24T15:48:02.568Z,10.98
2023-05-24T15:50:49.297Z,10.05
2023-05-24T15:53:21.778Z,8.95
2023-05-24T15:55:50.755Z,11.50
2023-05-24T15:58:20.445Z,10.07
2023-05-24T16:03:20.061Z,9.00
2023-05-24T16:05:49.694Z,9.05
2023-05-24T16:08:17.980Z,9.52
2023-05-24T16:10:46.632Z,9.40
2023-05-24T16:13:15.518Z,8.93
2023-05-24T16:15:51.253Z,7.78
2023-05-24T16:18:21.522Z,14.23
2023-05-24T16:20:50.970Z,9.88
2023-05-24T16:23:24.565Z,8.60
2023-05-24T16:25:53.101Z,8.20
2023-05-24T16:28:24.391Z,7.53
2023-05-24T16:30:56.341Z,8.50
2023-05-24T16:33:26.128Z,8.60
2023-05-24T16:35:57.444Z,8.50
2023-05-24T16:38:27.502Z,8.60
2023-05-24T16:40:55.861Z,8.02
2023-05-24T16:43:24.156Z,8.93
2023-05-24T16:45:55.109Z,14.85
2023-05-24T16:48:28.269Z,11.18
2023-05-24T16:50:57.643Z,8.52
2023-05-24T16:53:27.113Z,8.90
2023-05-24T16:55:56.237Z,9.87
2023-05-24T16:58:28.097Z,8.25
2023-05-24T17:00:58.564Z,9.00
2023-05-24T17:03:29.719Z,8.80
2023-05-24T17:06:03.722Z,8.60
2023-05-24T17:08:35.689Z,10.02
2023-05-24T17:11:05.359Z,8.82
2023-05-24T17:13:34.322Z,8.43
2023-05-24T17:16:04.777Z,8.48
2023-05-24T17:21:03.923Z,7.65
2023-05-24T17:23:33.978Z,8.10
2023-05-24T17:26:03.334Z,8.40
2023-05-24T17:28:37.732Z,7.70
2023-05-24T17:31:09.296Z,9.65
2023-05-24T17:33:37.607Z,8.77
2023-05-24T17:36:06.379Z,8.27
2023-05-24T17:38:37.499Z,8.48
2023-05-24T17:41:07.922Z,8.00
2023-05-24T17:43:40.059Z,8.35
2023-05-24T17:46:10.086Z,7.63
2023-05-24T17:48:39.627Z,7.18
2023-05-24T17:51:09.306Z,6.88
2023-05-24T17:53:43.204Z,8.60
2023-05-24T17:56:13.641Z,22.15
2023-05-24T17:58:44.081Z,9.18
2023-05-24T18:01:15.666Z,14.23
2023-05-24T18:03:44.908Z,12.65
2023-05-24T18:06:14.150Z,12.40
2023-05-24T18:08:43.886Z,8.23
2023-05-24T18:11:13.290Z,7.15
2023-05-24T18:13:43.093Z,13.15
2023-05-24T18:16:12.388Z,20.87
2023-05-24T18:18:43.808Z,10.65
2023-05-24T18:21:13.109Z,18.98
2023-05-24T18:23:43.020Z,15.25
2023-05-24T18:26:12.601Z,14.02
2023-05-24T18:28:42.191Z,7.70
2023-05-24T18:31:11.383Z,6.77
2023-05-24T18:33:41.367Z,6.60
2023-05-24T18:36:10.040Z,7.00
2023-05-24T18:38:39.916Z,6.70
2023-05-24T18:41:10.128Z,7.22
2023-05-24T18:43:38.633Z,7.05
2023-05-24T18:46:07.184Z,6.70
2023-05-24T18:48:35.572Z,6.97
2023-05-24T18:51:06.586Z,6.82
2023-05-24T18:53:35.164Z,7.43
2023-05-24T18:56:03.403Z,7.30
2023-05-24T18:58:31.968Z,7.45
2023-05-24T19:01:00.503Z,7.00
2023-05-24T19:03:29.212Z,7.90
2023-05-24T19:05:57.583Z,12.30
2023-05-24T19:08:27.174Z,13.30
2023-05-24T19:10:55.676Z,9.27
2023-05-24T19:13:24.134Z,9.80
2023-05-24T19:15:53.608Z,13.18
2023-05-24T19:18:22.887Z,17.35
2023-05-24T19:20:51.134Z,11.65
2023-05-24T19:23:19.408Z,12.40
2023-05-24T19:25:50.440Z,15.60
2023-05-24T19:28:18.866Z,15.00
2023-05-24T19:30:47.175Z,9.23
2023-05-24T19:33:15.486Z,8.35
2023-05-24T19:35:44.101Z,29.08
2023-05-24T19:38:15.050Z,35.80
2023-05-24T19:40:43.299Z,34.95
2023-05-24T19:43:13.091Z,20.60
2023-05-24T19:45:41.619Z,9.82
2023-05-24T19:48:10.419Z,8.63
2023-05-24T19:50:39.327Z,7.97
2023-05-24T19:53:07.603Z,8.48
2023-05-24T19:55:36.481Z,8.00
2023-05-24T19:58:04.793Z,8.00
2023-05-24T20:00:34.738Z,7.95
2023-05-24T20:03:03.077Z,7.72
2023-05-24T20:05:31.966Z,7.85
2023-05-24T20:08:00.493Z,7.63
2023-05-24T20:10:30.056Z,7.85
2023-05-24T20:12:58.608Z,7.55
2023-05-24T20:15:28.259Z,7.18
2023-05-24T20:17:58.290Z,7.67
2023-05-24T20:20:26.853Z,7.63
2023-05-24T20:22:55.456Z,7.82
2023-05-24T20:25:23.655Z,7.80
2023-05-24T20:27:52.262Z,7.55
2023-05-24T20:30:20.764Z,7.20
2023-05-24T20:32:49.569Z,7.40
2023-05-24T20:35:19.798Z,7.13
2023-05-24T20:37:48.050Z,7.55
2023-05-24T20:40:23.302Z,6.75
2023-05-24T20:42:51.763Z,7.10
2023-05-24T20:45:21.800Z,7.28
2023-05-24T20:47:50.142Z,7.75
2023-05-24T20:50:23.294Z,8.18
2023-05-24T20:52:51.970Z,7.78
2023-05-24T20:55:20.992Z,7.25
2023-05-24T20:57:49.300Z,7.88
2023-05-24T21:00:17.892Z,7.53
2023-05-24T21:02:50.155Z,7.20
2023-05-24T21:05:20.654Z,7.25
2023-05-24T21:07:49.038Z,7.20
2023-05-24T21:10:19.202Z,7.40
2023-05-24T21:12:49.506Z,7.40
2023-05-24T21:15:18.382Z,7.35
2023-05-24T21:17:46.780Z,6.97
2023-05-24T21:20:15.174Z,6.95
2023-05-24T21:22:46.141Z,6.93
2023-05-24T21:25:14.400Z,7.07
2023-05-24T21:27:43.243Z,6.72
2023-05-24T21:30:12.346Z,6.47
2023-05-24T21:32:41.215Z,6.85
2023-05-24T21:35:09.988Z,6.95
2023-05-24T21:37:38.467Z,6.45
2023-05-24T21:40:09.181Z,6.15
2023-05-24T21:42:37.784Z,6.85
2023-05-24T21:45:06.935Z,6.60
2023-05-24T21:47:37.631Z,7.45
2023-05-24T21:50:06.752Z,6.80
2023-05-24T21:52:35.895Z,7.00
2023-05-24T21:55:04.346Z,7.07
2023-05-24T21:57:34.672Z,6.65
2023-05-24T22:00:03.977Z,7.00
2023-05-24T22:02:57.432Z,6.57
2023-05-24T22:05:27.736Z,6.80
2023-05-24T22:07:57.193Z,6.55
2023-05-24T22:10:25.553Z,7.13
2023-05-24T22:12:55.165Z,7.00
2023-05-24T22:15:24.306Z,6.80
2023-05-24T22:17:52.817Z,7.05
2023-05-24T22:20:22.685Z,6.70
2023-05-24T22:22:53.266Z,6.72
2023-05-24T22:25:22.154Z,7.25
2023-05-24T22:27:50.815Z,6.85
2023-05-24T22:30:21.022Z,7.03
2023-05-24T22:32:49.310Z,6.68
2023-05-24T22:35:19.091Z,6.85
2023-05-24T22:37:47.474Z,6.63
2023-05-24T22:40:15.768Z,7.15
2023-05-24T22:42:43.971Z,6.63
2023-05-24T22:45:13.967Z,6.72
2023-05-24T22:47:43.626Z,6.80
2023-05-24T22:50:12.512Z,6.87
2023-05-24T22:52:42.620Z,6.78
2023-05-24T22:55:12.103Z,6.72
2023-05-24T22:57:40.771Z,6.22
2023-05-24T23:00:10.045Z,7.53
2023-05-24T23:02:38.746Z,6.90
2023-05-24T23:05:11.600Z,7.05
2023-05-24T23:07:40.179Z,6.97
2023-05-24T23:10:09.321Z,7.50
2023-05-24T23:12:42.240Z,6.60
2023-05-24T23:15:11.622Z,7.32
2023-05-24T23:17:40.509Z,7.80
2023-05-24T23:20:14.270Z,6.75
2023-05-24T23:22:42.692Z,7.10
2023-05-24T23:25:11.663Z,6.75
2023-05-24T23:27:41.419Z,7.60
2023-05-24T23:30:10.692Z,6.97
2023-05-24T23:32:39.051Z,6.90
2023-05-24T23:35:08.488Z,6.72
2023-05-24T23:37:38.095Z,6.80
2023-05-24T23:40:08.131Z,6.72
2023-05-24T23:42:37.005Z,7.22
2023-05-24T23:45:06.430Z,6.50
2023-05-24T23:47:34.753Z,6.35
2023-05-24T23:50:06.841Z,6.70
2023-05-24T23:52:35.994Z,6.78
2023-05-24T23:55:06.623Z,6.97
